createdAt,value
2018-07-19T00:00:39.570Z,49.10
2018-07-19T00:03:10.677Z,49.10
2018-07-19T00:05:41.904Z,50.00
2018-07-19T00:08:12.833Z,49.20
2018-07-19T00:13:14.524Z,49.30
2018-07-19T00:15:44.988Z,49.10
2018-07-19T00:18:14.992Z,48.90
2018-07-19T00:20:45.143Z,49.20
2018-07-19T00:23:15.415Z,49.20
2018-07-19T00:25:45.489Z,49.20
2018-07-19T00:28:15.546Z,49.30
2018-07-19T00:30:45.526Z,49.20
2018-07-19T00:33:16.124Z,49.10
2018-07-19T00:35:46.241Z,48.90
2018-07-19T00:38:16.464Z,49.40
2018-07-19T00:40:46.644Z,49.30
2018-07-19T00:43:16.757Z,49.40
2018-07-19T00:45:46.960Z,49.70
2018-07-19T00:48:17.388Z,49.60
2018-07-19T00:50:47.552Z,49.50
2018-07-19T00:53:18.053Z,49.80
2018-07-19T00:55:47.990Z,50.20
2018-07-19T00:58:18.183Z,50.20
2018-07-19T01:00:48.286Z,50.50
2018-07-19T01:03:18.483Z,50.80
2018-07-19T01:05:48.519Z,50.80
2018-07-19T01:08:18.963Z,51.20
2018-07-19T01:10:49.080Z,51.10
2018-07-19T01:13:19.408Z,51.20
2018-07-19T01:15:49.578Z,51.20
2018-07-19T01:18:19.673Z,51.20
2018-07-19T01:20:49.874Z,51.80
2018-07-19T01:23:19.881Z,52.00
2018-07-19T01:25:49.773Z,52.10
2018-07-19T01:28:19.959Z,52.10
2018-07-19T01:30:50.123Z,52.50
2018-07-19T01:33:20.308Z,52.30
2018-07-19T01:35:51.354Z,52.50
2018-07-19T01:38:22.140Z,53.40
2018-07-19T01:40:53.100Z,52.50
2018-07-19T01:54:05.238Z,52.90
2018-07-19T01:56:35.329Z,53.00
2018-07-19T01:59:05.452Z,54.00
2018-07-19T02:01:35.872Z,54.20
2018-07-19T02:04:05.707Z,53.80
2018-07-19T02:06:36.375Z,54.40
2018-07-19T02:09:07.302Z,54.20
2018-07-19T02:11:37.082Z,54.10
2018-07-19T02:14:07.296Z,54.60
2018-07-19T02:16:38.299Z,54.50
2018-07-19T02:19:09.063Z,54.80
2018-07-19T02:24:05.063Z,54.80
2018-07-19T02:26:35.223Z,56.00
2018-07-19T02:29:06.178Z,55.50
2018-07-19T02:31:36.479Z,56.30
2018-07-19T02:34:06.539Z,56.30
2018-07-19T02:36:36.653Z,56.40
2018-07-19T02:39:10.958Z,56.30
2018-07-19T02:41:41.373Z,56.80
2018-07-19T02:44:13.018Z,56.60
2018-07-19T02:46:44.175Z,56.90
2018-07-19T02:49:14.529Z,57.00
2018-07-19T02:51:44.743Z,57.30
2018-07-19T02:54:14.838Z,57.20
2018-07-19T02:56:44.900Z,56.90
2018-07-19T02:59:15.149Z,56.70
2018-07-19T03:01:45.378Z,57.00
2018-07-19T03:04:15.462Z,57.00
2018-07-19T03:06:45.722Z,57.10
2018-07-19T03:09:15.928Z,56.80
2018-07-19T03:11:46.044Z,57.10
2018-07-19T03:14:16.045Z,57.20
2018-07-19T03:16:46.036Z,56.90
2018-07-19T03:19:15.997Z,57.10
2018-07-19T03:21:45.975Z,57.10
2018-07-19T03:24:16.113Z,57.10
2018-07-19T03:26:46.414Z,57.20
2018-07-19T03:29:16.496Z,57.60
2018-07-19T03:31:46.627Z,58.00
2018-07-19T03:34:17.020Z,58.00
2018-07-19T03:36:46.908Z,58.10
2018-07-19T03:39:17.340Z,57.70
2018-07-19T03:41:47.467Z,58.00
2018-07-19T03:44:17.752Z,58.30
2018-07-19T03:46:47.817Z,58.20
2018-07-19T03:49:18.113Z,58.20
2018-07-19T03:51:48.244Z,58.00
2018-07-19T03:54:18.548Z,57.80
2018-07-19T03:56:48.704Z,58.50
2018-07-19T03:59:18.870Z,58.20
2018-07-19T04:01:49.052Z,58.30
2018-07-19T04:04:19.445Z,58.00
2018-07-19T04:06:49.548Z,58.30
2018-07-19T04:09:19.955Z,57.80
2018-07-19T04:11:50.100Z,58.00
2018-07-19T04:14:20.170Z,58.00
2018-07-19T04:16:50.181Z,57.70
2018-07-19T04:19:20.515Z,58.30
2018-07-19T04:21:50.649Z,58.10
2018-07-19T04:24:20.783Z,58.30
2018-07-19T04:26:50.723Z,58.20
2018-07-19T04:29:23.173Z,58.00
2018-07-19T04:31:53.313Z,58.50
2018-07-19T04:34:23.497Z,58.80
2018-07-19T04:36:53.769Z,58.50
2018-07-19T04:41:53.123Z,58.70
2018-07-19T04:44:23.444Z,58.70
2018-07-19T04:46:59.193Z,58.80
2018-07-19T04:49:31.470Z,58.90
2018-07-19T04:52:02.349Z,59.90
2018-07-19T04:54:32.905Z,59.70
2018-07-19T04:57:02.957Z,59.40
2018-07-19T04:59:33.155Z,59.60
2018-07-19T05:02:02.935Z,59.40
2018-07-19T05:04:32.672Z,58.90
2018-07-19T05:07:02.858Z,58.50
2018-07-19T05:09:33.067Z,58.40
2018-07-19T05:12:03.355Z,58.50
2018-07-19T05:14:33.544Z,58.30
2018-07-19T05:17:03.657Z,58.30
2018-07-19T05:19:33.941Z,57.70
2018-07-19T05:22:04.133Z,57.90
2018-07-19T05:24:34.280Z,57.70
2018-07-19T05:27:04.509Z,57.10
2018-07-19T05:29:34.633Z,57.30
2018-07-19T05:32:05.368Z,57.50
2018-07-19T05:34:36.214Z,57.60
2018-07-19T05:37:07.304Z,57.50
2018-07-19T05:39:38.609Z,57.50
2018-07-19T05:42:09.949Z,56.40
2018-07-19T05:44:40.975Z,55.20
2018-07-19T05:47:11.948Z,53.30
2018-07-19T05:49:43.119Z,53.50
2018-07-19T05:52:14.359Z,53.00
2018-07-19T05:54:45.628Z,52.30
2018-07-19T05:57:16.243Z,51.70
2018-07-19T06:02:16.994Z,51.00
2018-07-19T06:04:47.154Z,50.60
2018-07-19T06:07:17.733Z,50.60
2018-07-19T06:09:50.734Z,50.40
2018-07-19T06:12:21.003Z,50.00
2018-07-19T06:14:50.975Z,50.00
2018-07-19T06:17:21.138Z,49.90
2018-07-19T06:19:51.119Z,49.70
2018-07-19T06:22:21.443Z,49.70
2018-07-19T06:27:22.193Z,48.60
2018-07-19T06:29:52.130Z,48.20
2018-07-19T06:32:22.200Z,48.40
2018-07-19T06:34:52.431Z,48.00
2018-07-19T06:37:22.568Z,48.50
2018-07-19T06:39:52.842Z,47.80
2018-07-19T06:42:23.063Z,48.10
2018-07-19T06:44:53.233Z,48.10
2018-07-19T06:47:23.318Z,47.70
2018-07-19T06:49:53.548Z,47.70
2018-07-19T06:52:23.904Z,47.70
2018-07-19T06:54:54.143Z,47.70
2018-07-19T06:57:24.263Z,47.30
2018-07-19T06:59:54.422Z,47.50
2018-07-19T07:02:24.669Z,47.40
2018-07-19T07:04:54.894Z,47.20
2018-07-19T07:07:25.048Z,47.30
2018-07-19T07:09:55.127Z,46.30
2018-07-19T07:12:25.418Z,47.20
2018-07-19T07:14:55.514Z,47.30
2018-07-19T07:17:25.486Z,47.30
2018-07-19T07:19:55.563Z,47.40
2018-07-19T07:22:25.748Z,47.20
2018-07-19T07:24:56.384Z,47.00
2018-07-19T07:27:26.863Z,47.50
2018-07-19T07:29:58.048Z,47.50
2018-07-19T07:32:29.484Z,48.50
2018-07-19T07:35:00.710Z,49.00
2018-07-19T07:37:31.422Z,49.40
2018-07-19T07:40:02.544Z,49.90
2018-07-19T07:42:33.405Z,50.10
2018-07-19T07:45:03.674Z,50.30
2018-07-19T07:47:33.923Z,50.50
2018-07-19T07:50:04.118Z,50.70
2018-07-19T07:52:34.456Z,50.10
2018-07-19T07:55:04.963Z,49.70
2018-07-19T07:57:35.104Z,49.80
2018-07-19T08:00:05.328Z,50.30
2018-07-19T08:02:35.333Z,50.30
2018-07-19T08:05:05.613Z,49.10
2018-07-19T08:07:36.063Z,48.90
2018-07-19T08:10:06.814Z,48.30
2018-07-19T08:12:37.000Z,48.10
2018-07-19T08:15:07.145Z,48.20
2018-07-19T08:17:37.197Z,47.70
2018-07-19T08:20:07.630Z,46.70
2018-07-19T08:22:37.828Z,47.20
2018-07-19T08:25:07.863Z,47.90
2018-07-19T08:27:38.284Z,47.10
2018-07-19T08:30:08.433Z,47.60
2018-07-19T08:32:38.417Z,47.70
2018-07-19T08:35:08.763Z,46.30
2018-07-19T08:37:39.408Z,45.70
2018-07-19T08:40:09.908Z,45.00
2018-07-19T08:42:40.425Z,45.50
2018-07-19T08:45:10.748Z,44.70
2018-07-19T08:47:41.340Z,43.70
2018-07-19T08:50:11.549Z,45.70
2018-07-19T08:52:41.718Z,43.70
2018-07-19T08:55:12.186Z,42.30
2018-07-19T08:57:42.436Z,43.00
2018-07-19T09:00:12.605Z,42.80
2018-07-19T09:02:42.746Z,42.40
2018-07-19T09:05:12.864Z,42.20
2018-07-19T09:10:14.976Z,41.10
2018-07-19T09:12:45.439Z,41.00
2018-07-19T09:15:15.779Z,41.40
2018-07-19T09:17:45.846Z,41.30
2018-07-19T09:20:15.944Z,39.20
2018-07-19T09:22:46.184Z,40.10
2018-07-19T09:25:16.623Z,40.60
2018-07-19T09:27:46.711Z,40.30
2018-07-19T09:30:16.931Z,41.50
2018-07-19T09:32:47.549Z,41.60
2018-07-19T09:35:18.241Z,41.20
2018-07-19T09:37:48.645Z,40.70
2018-07-19T09:40:18.930Z,38.20
2018-07-19T09:42:49.392Z,37.60
2018-07-19T09:45:19.939Z,36.80
2018-07-19T09:47:50.008Z,37.40
2018-07-19T09:50:20.489Z,37.40
2018-07-19T09:52:50.483Z,36.90
2018-07-19T09:55:20.923Z,36.60
2018-07-19T09:57:50.970Z,37.10
2018-07-19T10:00:26.291Z,37.30
2018-07-19T10:02:56.238Z,36.60
2018-07-19T10:05:26.413Z,37.70
2018-07-19T10:07:56.291Z,38.50
2018-07-19T10:10:26.804Z,38.40
2018-07-19T10:12:56.905Z,37.10
2018-07-19T10:15:27.350Z,38.20
2018-07-19T10:17:57.660Z,37.80
2018-07-19T10:20:27.806Z,37.30
2018-07-19T10:23:00.864Z,38.20
2018-07-19T10:25:30.875Z,37.20
2018-07-19T10:28:01.479Z,37.20
2018-07-19T10:30:31.334Z,36.40
2018-07-19T10:33:01.544Z,35.30
2018-07-19T10:35:31.764Z,35.20
2018-07-19T10:38:01.826Z,36.00
2018-07-19T10:40:31.833Z,36.40
2018-07-19T10:43:02.322Z,35.90
2018-07-19T10:45:32.404Z,36.40
2018-07-19T10:48:02.706Z,36.70
2018-07-19T10:50:32.450Z,35.80
2018-07-19T10:53:03.240Z,35.80
2018-07-19T10:55:34.589Z,35.20
2018-07-19T10:58:05.354Z,35.50
2018-07-19T11:04:06.314Z,35.90
2018-07-19T11:06:36.444Z,36.80
2018-07-19T11:09:09.369Z,36.10
2018-07-19T11:11:39.781Z,35.90
2018-07-19T11:14:10.001Z,35.40
2018-07-19T11:16:40.323Z,35.20
2018-07-19T11:19:10.344Z,35.80
2018-07-19T11:21:40.792Z,35.50
2018-07-19T11:24:10.967Z,35.50
2018-07-19T11:26:41.115Z,36.10
2018-07-19T11:29:11.371Z,35.50
2018-07-19T11:31:41.473Z,33.60
2018-07-19T11:36:41.055Z,31.60
2018-07-19T11:39:11.065Z,32.70
2018-07-19T11:41:42.162Z,32.20
2018-07-19T11:44:12.371Z,32.30
2018-07-19T11:46:42.541Z,33.50
2018-07-19T11:49:12.687Z,33.50
2018-07-19T11:51:42.956Z,33.70
2018-07-19T11:54:13.184Z,32.20
2018-07-19T11:56:43.323Z,32.60
2018-07-19T11:59:14.013Z,33.50
2018-07-19T12:01:44.240Z,34.10
2018-07-19T12:04:14.925Z,34.70
2018-07-19T12:06:45.411Z,36.20
2018-07-19T12:09:15.540Z,35.50
2018-07-19T12:11:46.329Z,35.40
2018-07-19T12:16:46.992Z,31.90
2018-07-19T12:19:17.366Z,32.60
2018-07-19T12:21:47.244Z,33.30
2018-07-19T12:24:17.322Z,32.30
2018-07-19T12:26:47.655Z,32.40
2018-07-19T12:31:47.297Z,33.70
2018-07-19T12:34:17.399Z,33.90
2018-07-19T12:36:47.735Z,33.70
2018-07-19T12:39:17.805Z,35.00
2018-07-19T12:41:47.849Z,35.60
2018-07-19T12:44:17.905Z,33.90
2018-07-19T12:46:48.179Z,31.60
2018-07-19T12:49:18.860Z,33.20
2018-07-19T12:51:49.056Z,31.10
2018-07-19T12:54:19.609Z,32.10
2018-07-19T12:56:50.290Z,31.80
2018-07-19T12:59:20.477Z,30.90
2018-07-19T13:01:50.836Z,31.70
2018-07-19T13:04:21.120Z,31.30
2018-07-19T13:06:51.640Z,30.90
2018-07-19T13:09:21.895Z,30.70
2018-07-19T13:14:23.811Z,29.10
2018-07-19T13:16:54.533Z,28.50
2018-07-19T13:19:24.685Z,29.10
2018-07-19T13:21:55.103Z,29.10
2018-07-19T13:24:25.898Z,29.20
2018-07-19T13:26:56.119Z,28.60
2018-07-19T13:29:26.029Z,29.00
2018-07-19T13:31:56.469Z,28.20
2018-07-19T13:34:26.823Z,28.90
2018-07-19T13:36:56.987Z,29.70
2018-07-19T13:39:27.251Z,28.70
2018-07-19T13:41:57.598Z,28.50
2018-07-19T13:44:27.645Z,28.50
2018-07-19T13:46:57.751Z,29.20
2018-07-19T13:49:28.961Z,28.50
2018-07-19T13:51:59.190Z,29.70
2018-07-19T13:54:46.749Z,30.00
2018-07-19T13:57:17.029Z,30.30
2018-07-19T13:59:47.366Z,29.90
2018-07-19T14:02:17.408Z,29.70
2018-07-19T14:04:47.632Z,29.30
2018-07-19T14:07:17.825Z,29.30
2018-07-19T14:09:48.066Z,29.20
2018-07-19T14:12:18.125Z,29.50
2018-07-19T14:14:48.315Z,30.00
2018-07-19T14:17:18.521Z,30.00
2018-07-19T14:19:48.864Z,30.00
2018-07-19T14:22:19.215Z,30.60
2018-07-19T14:24:49.369Z,31.00
2018-07-19T14:27:19.514Z,30.90
2018-07-19T14:29:49.594Z,31.10
2018-07-19T14:32:19.931Z,32.20
2018-07-19T14:34:50.236Z,32.50
2018-07-19T14:37:20.255Z,33.30
2018-07-19T14:39:50.645Z,32.30
2018-07-19T14:42:20.873Z,30.80
2018-07-19T14:44:50.805Z,30.00
2018-07-19T14:47:21.017Z,30.90
2018-07-19T14:49:51.026Z,31.80
2018-07-19T14:52:21.532Z,30.00
2018-07-19T14:59:52.932Z,31.00
2018-07-19T15:02:23.291Z,31.60
2018-07-19T15:04:53.409Z,32.10
2018-07-19T15:07:23.702Z,32.50
2018-07-19T15:09:53.884Z,32.40
2018-07-19T15:12:24.381Z,32.20
2018-07-19T15:14:54.635Z,32.30
2018-07-19T15:17:24.809Z,32.20
2018-07-19T15:19:55.094Z,31.80
2018-07-19T15:22:25.746Z,31.60
2018-07-19T15:24:55.887Z,31.00
2018-07-19T15:27:26.065Z,30.40
2018-07-19T15:29:56.241Z,29.80
2018-07-19T15:32:26.686Z,30.00
2018-07-19T15:34:56.735Z,30.20
2018-07-19T15:37:26.886Z,29.50
2018-07-19T15:39:56.925Z,29.70
2018-07-19T15:42:27.344Z,31.40
2018-07-19T15:44:57.422Z,31.40
2018-07-19T15:47:27.575Z,31.50
2018-07-19T15:49:57.919Z,30.70
2018-07-19T15:52:28.106Z,28.40
2018-07-19T15:54:58.126Z,30.00
2018-07-19T15:57:28.416Z,29.60
2018-07-19T15:59:58.470Z,29.20
2018-07-19T16:02:28.667Z,27.80
2018-07-19T16:04:58.939Z,27.30
2018-07-19T16:07:29.307Z,28.30
2018-07-19T16:09:59.389Z,28.00
2018-07-19T16:12:29.265Z,29.20
2018-07-19T16:14:59.211Z,28.40
2018-07-19T16:17:29.229Z,27.90
2018-07-19T16:20:00.215Z,27.20
2018-07-19T16:22:31.301Z,27.20
2018-07-19T16:27:32.289Z,28.30
2018-07-19T16:30:02.617Z,28.10
2018-07-19T16:32:32.636Z,27.30
2018-07-19T16:35:03.243Z,26.40
2018-07-19T16:37:33.464Z,26.20
2018-07-19T16:40:03.646Z,25.80
2018-07-19T16:42:34.052Z,26.30
2018-07-19T16:45:04.525Z,28.00
2018-07-19T16:47:34.720Z,26.10
2018-07-19T16:50:06.605Z,28.20
2018-07-19T16:52:36.692Z,26.50
2018-07-19T16:55:06.806Z,27.60
2018-07-19T16:57:37.011Z,27.60
2018-07-19T17:00:07.890Z,26.00
2018-07-19T17:02:38.381Z,27.60
2018-07-19T17:05:08.752Z,26.10
2018-07-19T17:07:38.949Z,25.70
2018-07-19T17:10:09.889Z,27.20
2018-07-19T17:12:40.051Z,26.00
2018-07-19T17:15:10.429Z,25.50
2018-07-19T17:17:40.756Z,25.50
2018-07-19T17:20:11.217Z,26.10
2018-07-19T17:22:41.411Z,27.40
2018-07-19T17:25:11.606Z,27.50
2018-07-19T17:27:41.625Z,27.80
2018-07-19T17:30:11.880Z,27.60
2018-07-19T17:32:42.004Z,26.60
2018-07-19T17:35:12.165Z,26.90
2018-07-19T17:37:42.303Z,26.60
2018-07-19T17:40:12.785Z,26.70
2018-07-19T17:42:43.318Z,27.30
2018-07-19T17:45:14.209Z,28.00
2018-07-19T17:47:44.921Z,27.70
2018-07-19T17:50:15.019Z,28.00
2018-07-19T17:52:45.370Z,28.60
2018-07-19T17:55:15.516Z,29.90
2018-07-19T17:57:45.813Z,29.60
2018-07-19T18:00:15.900Z,28.20
2018-07-19T18:02:46.006Z,30.20
2018-07-19T18:05:16.158Z,31.10
2018-07-19T18:07:47.268Z,31.20
2018-07-19T18:10:17.799Z,30.80
2018-07-19T18:12:48.754Z,31.80
2018-07-19T18:24:06.749Z,32.10
2018-07-19T18:26:37.130Z,32.30
2018-07-19T18:29:08.156Z,32.10
2018-07-19T18:31:38.226Z,31.80
2018-07-19T18:34:08.338Z,31.30
2018-07-19T18:36:38.581Z,30.90
2018-07-19T18:39:11.902Z,30.40
2018-07-19T18:41:42.173Z,31.50
2018-07-19T18:44:12.645Z,30.90
2018-07-19T18:46:43.203Z,31.30
2018-07-19T18:49:13.582Z,31.80
2018-07-19T18:51:43.824Z,32.30
2018-07-19T18:54:13.915Z,33.20
2018-07-19T18:56:44.209Z,33.10
2018-07-19T18:59:14.320Z,33.60
2018-07-19T19:01:44.562Z,33.70
2018-07-19T19:04:14.690Z,33.60
2018-07-19T19:06:44.928Z,33.20
2018-07-19T19:09:14.980Z,33.70
2018-07-19T19:11:45.283Z,33.30
2018-07-19T19:14:15.476Z,33.10
2018-07-19T19:16:46.691Z,33.70
2018-07-19T19:19:17.277Z,33.70
2018-07-19T19:21:48.785Z,33.50
2018-07-19T19:24:19.931Z,33.50
2018-07-19T19:26:51.193Z,33.90
2018-07-19T19:29:21.856Z,34.20
2018-07-19T19:31:52.912Z,34.50
2018-07-19T19:34:23.788Z,35.00
2018-07-19T19:36:55.206Z,35.30
2018-07-19T19:39:25.960Z,35.60
2018-07-19T19:41:57.294Z,35.80
2018-07-19T19:44:28.220Z,35.90
2018-07-19T19:46:59.501Z,36.40
2018-07-19T19:49:30.681Z,36.90
2018-07-19T19:52:01.582Z,37.20
2018-07-19T19:54:32.470Z,38.30
2018-07-19T19:57:02.502Z,38.20
2018-07-19T19:59:32.800Z,37.90
2018-07-19T20:02:02.969Z,38.20
2018-07-19T20:04:33.250Z,38.80
2018-07-19T20:07:03.338Z,38.30
2018-07-19T20:09:33.445Z,38.60
2018-07-19T20:12:03.936Z,38.50
2018-07-19T20:14:34.625Z,39.40
2018-07-19T20:17:04.846Z,39.60
2018-07-19T20:19:35.065Z,39.70
2018-07-19T20:22:05.634Z,39.90
2018-07-19T20:24:35.822Z,40.00
2018-07-19T20:27:06.025Z,40.50
2018-07-19T20:29:36.263Z,40.60
2018-07-19T20:32:06.594Z,40.70
2018-07-19T20:34:37.216Z,40.60
2018-07-19T20:37:07.564Z,41.00
2018-07-19T20:39:37.944Z,41.40
2018-07-19T20:42:09.311Z,41.90
2018-07-19T20:44:39.510Z,41.30
2018-07-19T20:47:09.798Z,41.70
2018-07-19T20:49:40.196Z,42.20
2018-07-19T20:52:10.479Z,43.00
2018-07-19T20:54:40.854Z,42.80
2018-07-19T20:57:11.187Z,43.00
2018-07-19T20:59:41.392Z,43.30
2018-07-19T21:02:11.396Z,43.50
2018-07-19T21:04:41.418Z,43.60
2018-07-19T21:07:11.749Z,44.10
2018-07-19T21:09:41.845Z,44.30
2018-07-19T21:12:12.034Z,44.30
2018-07-19T21:14:42.137Z,44.30
2018-07-19T21:17:12.421Z,44.40
2018-07-19T21:19:42.525Z,44.50
2018-07-19T21:22:12.522Z,44.40
2018-07-19T21:24:42.957Z,44.40
2018-07-19T21:27:13.106Z,44.20
2018-07-19T21:29:43.525Z,44.50
2018-07-19T21:32:14.660Z,44.60
2018-07-19T21:34:45.836Z,44.80
2018-07-19T21:37:16.766Z,45.00
2018-07-19T21:39:47.786Z,45.30
2018-07-19T21:42:18.615Z,45.40
2018-07-19T21:44:49.689Z,45.50
2018-07-19T21:47:19.751Z,46.00
2018-07-19T21:49:49.885Z,45.90
2018-07-19T21:52:20.150Z,46.10
2018-07-19T21:54:50.331Z,46.10
2018-07-19T21:57:20.433Z,46.30
2018-07-19T21:59:50.578Z,46.40
2018-07-19T22:02:20.780Z,46.00
2018-07-19T22:04:50.960Z,45.70
2018-07-19T22:09:50.871Z,47.20
2018-07-19T22:12:21.130Z,46.60
2018-07-19T22:21:03.861Z,46.60
2018-07-19T22:23:34.085Z,45.80
2018-07-19T22:26:04.365Z,46.40
2018-07-19T22:28:34.474Z,45.00
2018-07-19T22:31:04.899Z,45.20
2018-07-19T22:33:35.024Z,46.10
2018-07-19T22:36:05.452Z,46.90
2018-07-19T22:38:35.469Z,47.00
2018-07-19T22:41:05.606Z,46.60
2018-07-19T22:43:35.748Z,45.70
2018-07-19T22:46:06.274Z,46.40
2018-07-19T22:48:36.081Z,46.60
2018-07-19T22:51:06.351Z,47.50
2018-07-19T22:53:36.584Z,47.20
2018-07-19T22:56:06.821Z,47.40
2018-07-19T22:58:36.779Z,47.60
2018-07-19T23:01:07.153Z,48.10
2018-07-19T23:03:37.395Z,48.30
2018-07-19T23:06:08.482Z,48.30
2018-07-19T23:08:39.605Z,48.50
2018-07-19T23:11:10.736Z,48.40
2018-07-19T23:13:41.800Z,48.60
2018-07-19T23:16:12.957Z,49.00
2018-07-19T23:18:44.786Z,49.30
2018-07-19T23:21:15.345Z,49.50
2018-07-19T23:23:46.562Z,50.80
2018-07-19T23:26:16.805Z,50.20
2018-07-19T23:28:47.125Z,50.20
2018-07-19T23:31:17.290Z,49.90
2018-07-19T23:33:47.440Z,50.00
2018-07-19T23:36:20.704Z,50.00
2018-07-19T23:38:59.021Z,50.30
2018-07-19T23:41:37.745Z,50.60
2018-07-19T23:44:12.491Z,50.80
2018-07-19T23:46:48.127Z,51.20
2018-07-19T23:49:18.048Z,51.40
2018-07-19T23:51:48.125Z,51.50
2018-07-19T23:54:18.236Z,51.40
2018-07-19T23:56:48.559Z,51.40
2018-07-19T23:59:18.750Z,51.60
